createdAt,value
2022-11-26T00:01:14.245Z,7.90
2022-11-26T00:03:42.135Z,7.45
2022-11-26T00:06:50.494Z,8.57
2022-11-26T00:09:19.074Z,6.93
2022-11-26T00:11:46.269Z,7.28
2022-11-26T00:14:16.457Z,8.10
2022-11-26T00:16:44.023Z,7.60
2022-11-26T00:19:11.271Z,7.40
2022-11-26T00:21:39.481Z,7.28
2022-11-26T00:24:25.173Z,7.25
2022-11-26T00:26:52.349Z,6.95
2022-11-26T00:29:19.546Z,6.57
2022-11-26T00:31:46.739Z,7.00
2022-11-26T00:34:13.946Z,6.00
2022-11-26T00:36:42.190Z,7.07
2022-11-26T00:39:18.192Z,6.65
2022-11-26T00:41:48.120Z,7.30
2022-11-26T00:44:19.317Z,7.22
2022-11-26T00:46:46.541Z,6.65
2022-11-26T00:49:13.741Z,6.40
2022-11-26T00:51:41.037Z,6.25
2022-11-26T00:54:10.034Z,6.13
2022-11-26T00:56:38.273Z,6.78
2022-11-26T00:59:05.678Z,6.68
2022-11-26T01:01:33.132Z,6.60
2022-11-26T01:04:00.454Z,7.10
2022-11-26T01:06:35.862Z,6.70
2022-11-26T01:09:04.998Z,6.97
2022-11-26T01:11:32.287Z,6.15
2022-11-26T01:13:59.614Z,7.20
2022-11-26T01:16:31.609Z,6.68
2022-11-26T01:18:59.386Z,6.20
2022-11-26T01:21:27.291Z,5.68
2022-11-26T01:23:54.489Z,6.45
2022-11-26T01:26:23.867Z,6.18
2022-11-26T01:28:51.198Z,6.38
2022-11-26T01:31:20.976Z,5.85
2022-11-26T01:33:48.242Z,6.07
2022-11-26T01:36:37.615Z,5.80
2022-11-26T01:39:23.302Z,6.15
2022-11-26T01:42:02.079Z,6.25
2022-11-26T01:44:31.539Z,5.85
2022-11-26T01:46:59.341Z,6.63
2022-11-26T01:49:27.581Z,6.38
2022-11-26T01:52:10.166Z,5.57
2022-11-26T01:54:38.523Z,5.90
2022-11-26T01:57:09.801Z,5.80
2022-11-26T01:59:39.124Z,6.07
2022-11-26T02:02:06.327Z,5.63
2022-11-26T02:04:39.360Z,6.43
2022-11-26T02:07:06.896Z,5.40
2022-11-26T02:09:34.104Z,5.35
2022-11-26T02:12:01.301Z,6.38
2022-11-26T02:14:30.719Z,5.72
2022-11-26T02:17:07.076Z,5.90
2022-11-26T02:20:17.053Z,5.75
2022-11-26T02:22:50.239Z,5.65
2022-11-26T02:25:54.676Z,6.13
2022-11-26T02:29:00.959Z,4.63
2022-11-26T02:31:42.060Z,5.80
2022-11-26T02:34:09.214Z,5.55
2022-11-26T02:37:13.342Z,5.28
2022-11-26T02:39:40.609Z,4.95
2022-11-26T02:42:27.077Z,5.30
2022-11-26T02:44:55.825Z,5.65
2022-11-26T02:47:22.999Z,5.40
2022-11-26T02:49:50.176Z,5.35
2022-11-26T02:52:17.367Z,5.38
2022-11-26T02:54:44.524Z,4.88
2022-11-26T02:57:13.295Z,5.50
2022-11-26T02:59:40.702Z,5.35
2022-11-26T03:02:35.676Z,5.55
2022-11-26T03:05:02.905Z,7.28
2022-11-26T03:07:30.691Z,9.02
2022-11-26T03:09:59.462Z,7.53
2022-11-26T03:12:26.722Z,7.22
2022-11-26T03:14:53.920Z,6.57
2022-11-26T03:17:21.134Z,6.90
2022-11-26T03:19:48.309Z,7.03
2022-11-26T03:22:15.640Z,5.18
2022-11-26T03:24:42.902Z,5.30
2022-11-26T03:27:10.124Z,6.47
2022-11-26T03:29:37.320Z,6.35
2022-11-26T03:32:04.877Z,6.03
2022-11-26T03:34:32.279Z,5.45
2022-11-26T03:36:59.457Z,5.97
2022-11-26T03:39:26.664Z,5.40
2022-11-26T03:41:53.832Z,5.95
2022-11-26T03:44:21.193Z,5.85
2022-11-26T03:46:48.363Z,6.25
2022-11-26T03:49:15.550Z,6.50
2022-11-26T03:51:42.729Z,6.13
2022-11-26T03:54:10.174Z,5.78
2022-11-26T03:56:37.352Z,5.90
2022-11-26T03:59:04.532Z,6.10
2022-11-26T04:01:31.854Z,5.80
2022-11-26T04:03:59.239Z,6.07
2022-11-26T04:06:26.471Z,5.82
2022-11-26T04:08:53.669Z,6.15
2022-11-26T04:11:20.842Z,5.78
2022-11-26T04:13:48.013Z,5.68
2022-11-26T04:16:15.272Z,6.35
2022-11-26T04:18:42.559Z,5.63
2022-11-26T04:21:09.756Z,5.88
2022-11-26T04:23:36.941Z,5.63
2022-11-26T04:26:04.562Z,6.70
2022-11-26T04:28:31.813Z,5.80
2022-11-26T04:30:58.991Z,6.30
2022-11-26T04:33:27.122Z,6.40
2022-11-26T04:35:54.456Z,5.65
2022-11-26T04:38:25.782Z,6.35
2022-11-26T04:40:53.376Z,6.53
2022-11-26T04:43:20.639Z,6.32
2022-11-26T04:45:47.873Z,7.10
2022-11-26T04:48:15.118Z,6.05
2022-11-26T04:50:42.282Z,6.65
2022-11-26T04:53:09.572Z,6.95
2022-11-26T04:55:36.746Z,6.53
2022-11-26T04:58:03.929Z,7.20
2022-11-26T05:00:31.117Z,6.72
2022-11-26T05:02:58.339Z,6.78
2022-11-26T05:05:25.552Z,6.80
2022-11-26T05:07:52.775Z,6.72
2022-11-26T05:10:20.136Z,6.70
2022-11-26T05:12:47.292Z,7.30
2022-11-26T05:15:14.467Z,7.30
2022-11-26T05:17:41.650Z,7.55
2022-11-26T05:20:09.282Z,7.03
2022-11-26T05:22:36.441Z,7.25
2022-11-26T05:25:03.878Z,7.00
2022-11-26T05:27:31.054Z,7.53
2022-11-26T05:29:58.266Z,7.13
2022-11-26T05:32:25.426Z,7.38
2022-11-26T05:34:55.670Z,6.90
2022-11-26T05:37:25.799Z,8.07
2022-11-26T05:39:52.982Z,7.35
2022-11-26T05:42:20.157Z,7.28
2022-11-26T05:44:47.321Z,7.60
2022-11-26T05:47:14.510Z,6.82
2022-11-26T05:49:41.672Z,6.80
2022-11-26T05:52:08.858Z,7.30
2022-11-26T05:54:36.181Z,6.40
2022-11-26T05:57:03.562Z,6.78
2022-11-26T05:59:30.744Z,6.00
2022-11-26T06:01:57.938Z,6.60
2022-11-26T06:04:25.194Z,6.50
2022-11-26T06:06:52.366Z,6.00
2022-11-26T06:09:19.685Z,5.97
2022-11-26T06:11:48.541Z,6.57
2022-11-26T06:14:15.925Z,6.50
2022-11-26T06:16:43.128Z,6.43
2022-11-26T06:19:11.264Z,6.53
2022-11-26T06:21:38.497Z,6.65
2022-11-26T06:24:05.988Z,5.85
2022-11-26T06:26:33.151Z,6.70
2022-11-26T06:29:00.323Z,6.07
2022-11-26T06:31:27.597Z,6.35
2022-11-26T06:33:55.389Z,6.25
2022-11-26T06:36:22.930Z,6.15
2022-11-26T06:38:50.084Z,6.38
2022-11-26T06:41:17.304Z,5.82
2022-11-26T06:43:44.466Z,5.90
2022-11-26T06:46:11.874Z,6.63
2022-11-26T06:48:39.410Z,6.82
2022-11-26T06:51:07.332Z,6.03
2022-11-26T06:53:34.733Z,5.70
2022-11-26T06:56:02.587Z,6.60
2022-11-26T06:58:29.801Z,6.85
2022-11-26T07:00:57.083Z,6.45
2022-11-26T07:03:28.023Z,5.03
2022-11-26T07:05:57.765Z,5.55
2022-11-26T07:08:24.939Z,5.03
2022-11-26T07:10:52.105Z,4.90
2022-11-26T07:13:19.345Z,4.13
2022-11-26T07:15:46.557Z,5.05
2022-11-26T07:18:13.735Z,4.85
2022-11-26T07:20:40.912Z,4.28
2022-11-26T07:23:08.086Z,3.72
2022-11-26T07:25:36.155Z,3.50
2022-11-26T07:28:03.326Z,3.60
2022-11-26T07:30:30.491Z,3.58
2022-11-26T07:32:57.630Z,3.10
2022-11-26T07:35:25.018Z,2.95
2022-11-26T07:37:52.212Z,2.75
2022-11-26T07:40:19.657Z,2.60
2022-11-26T07:42:51.863Z,2.85
2022-11-26T07:45:24.638Z,2.75
2022-11-26T07:47:51.791Z,3.00
2022-11-26T07:50:18.962Z,3.80
2022-11-26T07:52:46.123Z,3.35
2022-11-26T07:55:13.286Z,3.05
2022-11-26T07:57:40.454Z,2.92
2022-11-26T08:00:08.206Z,2.65
2022-11-26T08:02:39.121Z,2.40
2022-11-26T08:05:06.697Z,3.28
2022-11-26T08:07:35.307Z,3.50
2022-11-26T08:10:03.450Z,3.30
2022-11-26T08:12:30.636Z,4.07
2022-11-26T08:14:57.792Z,3.72
2022-11-26T08:17:24.991Z,4.80
2022-11-26T08:19:52.181Z,5.70
2022-11-26T08:22:19.351Z,6.63
2022-11-26T08:24:46.534Z,5.53
2022-11-26T08:27:13.714Z,4.57
2022-11-26T08:29:40.898Z,4.95
2022-11-26T08:32:08.131Z,4.93
2022-11-26T08:34:35.414Z,4.50
2022-11-26T08:37:02.671Z,4.50
2022-11-26T08:39:29.868Z,4.40
2022-11-26T08:41:57.098Z,4.22
2022-11-26T08:44:24.302Z,5.95
2022-11-26T08:46:51.441Z,4.13
2022-11-26T08:49:18.685Z,4.50
2022-11-26T08:51:45.948Z,5.40
2022-11-26T08:54:13.132Z,4.13
2022-11-26T08:56:40.345Z,3.95
2022-11-26T08:59:07.536Z,4.20
2022-11-26T09:01:35.034Z,5.25
2022-11-26T09:04:02.729Z,4.55
2022-11-26T09:06:30.726Z,5.20
2022-11-26T09:09:13.109Z,4.78
2022-11-26T09:11:40.466Z,4.70
2022-11-26T09:14:07.735Z,5.00
2022-11-26T09:16:35.250Z,4.63
2022-11-26T09:19:03.128Z,3.70
2022-11-26T09:21:30.395Z,3.97
2022-11-26T09:23:57.565Z,4.15
2022-11-26T09:26:25.264Z,3.90
2022-11-26T09:28:52.488Z,4.50
2022-11-26T09:31:20.018Z,5.05
2022-11-26T09:33:47.226Z,3.65
2022-11-26T09:36:18.285Z,4.47
2022-11-26T09:38:45.656Z,3.70
2022-11-26T09:41:45.442Z,3.78
2022-11-26T09:44:22.134Z,3.80
2022-11-26T09:47:13.300Z,4.03
2022-11-26T09:49:58.590Z,4.50
2022-11-26T09:52:28.596Z,4.13
2022-11-26T09:55:04.362Z,5.03
2022-11-26T09:57:51.967Z,4.22
2022-11-26T10:00:23.769Z,4.50
2022-11-26T10:02:57.405Z,4.35
2022-11-26T10:06:05.819Z,3.80
2022-11-26T10:09:06.899Z,4.22
2022-11-26T10:11:59.279Z,4.25
2022-11-26T10:14:55.141Z,4.43
2022-11-26T10:17:28.317Z,3.75
2022-11-26T10:20:13.905Z,4.20
2022-11-26T10:22:55.533Z,4.20
2022-11-26T10:25:27.286Z,3.85
2022-11-26T10:27:55.598Z,3.80
2022-11-26T10:30:27.879Z,4.63
2022-11-26T10:32:55.893Z,4.95
2022-11-26T10:35:24.867Z,4.45
2022-11-26T10:37:52.170Z,4.63
2022-11-26T10:40:29.739Z,4.95
2022-11-26T10:43:10.302Z,4.97
2022-11-26T10:45:49.905Z,5.65
2022-11-26T10:48:21.953Z,6.68
2022-11-26T10:50:55.454Z,7.65
2022-11-26T10:53:23.476Z,7.28
2022-11-26T10:55:51.873Z,7.38
2022-11-26T10:58:27.038Z,6.90
2022-11-26T11:01:02.993Z,7.53
2022-11-26T11:04:08.754Z,7.75
2022-11-26T11:06:42.809Z,7.43
2022-11-26T11:09:24.082Z,8.07
2022-11-26T11:12:18.613Z,8.35
2022-11-26T11:14:46.490Z,7.77
2022-11-26T11:17:24.271Z,8.63
2022-11-26T11:19:51.469Z,8.40
2022-11-26T11:22:21.684Z,8.93
2022-11-26T11:24:48.977Z,7.78
2022-11-26T11:27:27.405Z,8.85
2022-11-26T11:29:59.376Z,8.77
2022-11-26T11:32:34.191Z,9.65
2022-11-26T11:37:54.161Z,9.50
2022-11-26T11:40:27.295Z,9.20
2022-11-26T11:43:02.037Z,9.30
2022-11-26T11:48:30.341Z,8.20
2022-11-26T11:51:36.018Z,9.32
2022-11-26T11:54:20.278Z,9.10
2022-11-26T11:57:13.136Z,8.73
2022-11-26T12:00:09.622Z,8.93
2022-11-26T12:03:14.720Z,8.98
2022-11-26T12:06:17.347Z,8.52
2022-11-26T12:08:50.708Z,8.73
2022-11-26T12:11:17.855Z,8.70
2022-11-26T12:13:53.762Z,8.98
2022-11-26T12:16:21.300Z,8.00
2022-11-26T12:18:53.968Z,8.70
2022-11-26T12:21:35.097Z,8.80
2022-11-26T12:24:11.499Z,9.05
2022-11-26T12:26:46.965Z,9.65
2022-11-26T12:29:39.510Z,11.00
2022-11-26T12:32:22.104Z,9.88
2022-11-26T12:34:52.562Z,9.93
2022-11-26T12:37:21.263Z,9.55
2022-11-26T12:39:54.294Z,9.27
2022-11-26T12:42:33.476Z,9.98
2022-11-26T12:45:33.005Z,19.52
2022-11-26T12:48:03.170Z,22.35
2022-11-26T12:50:42.346Z,9.95
2022-11-26T12:53:31.281Z,8.93
2022-11-26T12:56:24.444Z,8.57
2022-11-26T12:59:18.098Z,8.27
2022-11-26T13:01:45.501Z,8.02
2022-11-26T13:04:36.635Z,7.55
2022-11-26T13:07:15.355Z,7.10
2022-11-26T13:09:59.006Z,7.00
2022-11-26T13:12:46.536Z,7.65
2022-11-26T13:15:24.856Z,7.75
2022-11-26T13:17:52.088Z,6.75
2022-11-26T13:20:54.333Z,6.68
2022-11-26T13:23:34.976Z,6.82
2022-11-26T13:26:15.703Z,6.72
2022-11-26T13:28:54.938Z,7.10
2022-11-26T13:31:30.983Z,6.93
2022-11-26T13:34:04.334Z,6.60
2022-11-26T13:37:05.566Z,7.47
2022-11-26T13:39:54.533Z,7.90
2022-11-26T13:42:37.321Z,7.20
2022-11-26T13:45:09.170Z,8.25
2022-11-26T13:47:42.190Z,8.27
2022-11-26T13:50:17.530Z,7.63
2022-11-26T13:53:11.396Z,6.88
2022-11-26T13:55:47.304Z,7.10
2022-11-26T13:58:20.223Z,6.68
2022-11-26T14:00:47.487Z,7.13
2022-11-26T14:03:47.540Z,7.57
2022-11-26T14:06:15.018Z,9.02
2022-11-26T14:08:46.798Z,8.93
2022-11-26T14:11:46.210Z,9.15
2022-11-26T14:14:25.522Z,8.23
2022-11-26T14:17:01.913Z,7.63
2022-11-26T14:19:41.506Z,7.60
2022-11-26T14:22:20.688Z,8.25
2022-11-26T14:24:48.105Z,8.15
2022-11-26T14:27:31.774Z,8.57
2022-11-26T14:30:08.119Z,7.35
2022-11-26T14:33:04.244Z,7.80
2022-11-26T14:35:36.369Z,7.78
2022-11-26T14:38:06.179Z,6.85
2022-11-26T14:40:35.717Z,7.18
2022-11-26T14:43:22.670Z,6.80
2022-11-26T14:46:03.546Z,7.07
2022-11-26T14:48:31.154Z,8.18
2022-11-26T14:50:59.288Z,7.65
2022-11-26T14:53:31.536Z,6.97
2022-11-26T14:55:58.953Z,7.25
2022-11-26T14:58:39.405Z,7.15
2022-11-26T15:01:15.964Z,7.40
2022-11-26T15:03:43.852Z,7.15
2022-11-26T15:06:34.886Z,6.95
2022-11-26T15:09:15.235Z,6.63
2022-11-26T15:12:01.650Z,7.50
2022-11-26T15:14:40.928Z,8.63
2022-11-26T15:17:11.683Z,8.00
2022-11-26T15:19:39.118Z,7.25
2022-11-26T15:22:08.403Z,7.43
2022-11-26T15:24:36.395Z,8.00
2022-11-26T15:27:03.804Z,8.02
2022-11-26T15:29:41.204Z,8.30
2022-11-26T15:32:24.850Z,8.25
2022-11-26T15:34:52.231Z,8.55
2022-11-26T15:37:19.527Z,9.07
2022-11-26T15:39:46.887Z,8.40
2022-11-26T15:42:40.682Z,9.52
2022-11-26T15:45:16.627Z,9.25
2022-11-26T15:47:51.210Z,10.10
2022-11-26T15:50:33.758Z,12.77
2022-11-26T15:53:13.343Z,13.50
2022-11-26T15:55:40.674Z,11.55
2022-11-26T15:58:10.235Z,12.07
2022-11-26T16:00:39.629Z,12.23
2022-11-26T16:03:41.457Z,14.77
2022-11-26T16:06:26.473Z,14.20
2022-11-26T16:12:01.560Z,13.63
2022-11-26T16:14:39.903Z,12.70
2022-11-26T16:17:13.088Z,13.38
2022-11-26T16:19:48.576Z,16.38
2022-11-26T16:22:17.359Z,14.75
2022-11-26T16:24:44.623Z,14.52
2022-11-26T16:27:17.931Z,13.93
2022-11-26T16:29:45.425Z,16.73
2022-11-26T16:32:13.243Z,16.80
2022-11-26T16:34:40.820Z,18.90
2022-11-26T16:37:27.924Z,18.33
2022-11-26T16:40:03.082Z,19.17
2022-11-26T16:42:30.867Z,19.42
2022-11-26T16:45:03.779Z,20.15
2022-11-26T16:47:33.624Z,21.20
2022-11-26T16:50:02.539Z,21.13
2022-11-26T16:52:29.943Z,21.45
2022-11-26T16:54:57.219Z,20.15
2022-11-26T16:57:26.192Z,20.45
2022-11-26T16:59:55.730Z,20.70
2022-11-26T17:02:23.524Z,18.98
2022-11-26T17:04:51.024Z,18.98
2022-11-26T17:07:30.270Z,19.05
2022-11-26T17:09:57.639Z,18.17
2022-11-26T17:12:25.479Z,16.85
2022-11-26T17:17:25.473Z,16.92
2022-11-26T17:19:53.041Z,17.38
2022-11-26T17:22:20.386Z,16.75
2022-11-26T17:24:47.718Z,15.13
2022-11-26T17:27:17.303Z,15.80
2022-11-26T17:29:45.184Z,17.27
2022-11-26T17:32:19.830Z,16.20
2022-11-26T17:34:47.709Z,15.65
2022-11-26T17:37:25.342Z,15.55
2022-11-26T17:39:52.646Z,16.50
2022-11-26T17:42:21.715Z,16.23
2022-11-26T17:44:49.767Z,15.85
2022-11-26T17:47:18.852Z,15.63
2022-11-26T17:49:46.595Z,16.00
2022-11-26T17:52:14.650Z,15.55
2022-11-26T17:54:42.319Z,15.52
2022-11-26T17:57:14.051Z,16.25
2022-11-26T17:59:41.816Z,15.40
2022-11-26T18:02:09.824Z,16.25
2022-11-26T18:04:37.398Z,15.40
2022-11-26T18:07:10.832Z,17.35
2022-11-26T18:09:38.620Z,15.75
2022-11-26T18:12:09.500Z,18.05
2022-11-26T18:14:41.093Z,16.33
2022-11-26T18:17:11.532Z,17.60
2022-11-26T18:19:43.396Z,17.08
2022-11-26T18:22:14.931Z,17.63
2022-11-26T18:24:43.424Z,17.40
2022-11-26T18:27:10.741Z,15.45
2022-11-26T18:29:38.210Z,15.65
2022-11-26T18:32:05.947Z,18.02
2022-11-26T18:34:33.333Z,16.60
2022-11-26T18:37:00.625Z,16.85
2022-11-26T18:39:28.389Z,17.23
2022-11-26T18:42:15.371Z,16.90
2022-11-26T18:44:42.997Z,15.40
2022-11-26T18:47:10.318Z,15.63
2022-11-26T18:49:38.219Z,15.65
2022-11-26T18:52:06.062Z,16.17
2022-11-26T18:54:33.356Z,15.85
2022-11-26T18:57:00.669Z,15.98
2022-11-26T18:59:28.144Z,15.80
2022-11-26T19:01:55.567Z,12.85
2022-11-26T19:04:22.940Z,14.35
2022-11-26T19:06:50.276Z,14.35
2022-11-26T19:09:19.087Z,16.00
2022-11-26T19:11:46.715Z,15.63
2022-11-26T19:14:14.922Z,17.80
2022-11-26T19:16:42.752Z,17.63
2022-11-26T19:19:10.207Z,16.50
2022-11-26T19:21:37.512Z,17.88
2022-11-26T19:24:06.399Z,15.40
2022-11-26T19:26:33.839Z,13.98
2022-11-26T19:29:03.925Z,16.55
2022-11-26T19:31:34.965Z,16.38
2022-11-26T19:34:05.914Z,17.38
2022-11-26T19:36:33.491Z,12.50
2022-11-26T19:39:01.196Z,9.75
2022-11-26T19:41:28.620Z,12.32
2022-11-26T19:43:56.045Z,16.58
2022-11-26T19:46:24.741Z,16.60
2022-11-26T19:48:52.523Z,16.33
2022-11-26T19:51:20.594Z,16.77
2022-11-26T19:53:49.130Z,18.73
2022-11-26T19:56:34.840Z,17.88
2022-11-26T19:59:02.396Z,19.13
2022-11-26T20:01:31.322Z,20.67
2022-11-26T20:03:59.704Z,27.70
2022-11-26T20:06:27.464Z,22.20
2022-11-26T20:08:55.214Z,19.95
2022-11-26T20:11:22.614Z,20.60
2022-11-26T20:13:50.168Z,22.40
2022-11-26T20:16:25.618Z,22.23
2022-11-26T20:18:53.079Z,21.80
2022-11-26T20:21:25.706Z,21.70
2022-11-26T20:23:53.827Z,23.52
2022-11-26T20:26:26.460Z,23.30
2022-11-26T20:28:53.833Z,22.75
2022-11-26T20:31:23.900Z,23.40
2022-11-26T20:33:52.712Z,29.08
2022-11-26T20:36:20.962Z,27.27
2022-11-26T20:38:52.553Z,27.73
2022-11-26T20:41:19.907Z,29.83
2022-11-26T20:43:47.488Z,28.33
2022-11-26T20:46:14.923Z,30.52
2022-11-26T20:48:43.348Z,29.75
2022-11-26T20:51:12.461Z,28.75
2022-11-26T20:53:40.117Z,30.60
2022-11-26T20:56:07.730Z,33.22
2022-11-26T20:58:35.385Z,32.00
2022-11-26T21:01:02.951Z,32.47
2022-11-26T21:03:30.415Z,31.60
2022-11-26T21:06:02.112Z,30.30
2022-11-26T21:08:29.423Z,29.88
2022-11-26T21:10:56.826Z,28.85
2022-11-26T21:13:24.190Z,27.25
2022-11-26T21:15:51.584Z,30.52
2022-11-26T21:18:18.885Z,28.58
2022-11-26T21:20:46.224Z,27.52
2022-11-26T21:23:13.680Z,23.48
2022-11-26T21:25:41.843Z,23.48
2022-11-26T21:28:09.363Z,25.70
2022-11-26T21:30:36.877Z,23.65
2022-11-26T21:33:09.101Z,24.08
2022-11-26T21:35:36.876Z,24.08
2022-11-26T21:38:04.623Z,23.10
2022-11-26T21:40:32.211Z,22.35
2022-11-26T21:42:59.513Z,22.88
2022-11-26T21:45:27.721Z,21.63
2022-11-26T21:47:55.226Z,21.83
2022-11-26T21:50:23.670Z,21.40
2022-11-26T21:52:50.983Z,19.77
2022-11-26T21:55:18.273Z,18.85
2022-11-26T21:57:45.557Z,19.02
2022-11-26T22:00:13.487Z,20.35
2022-11-26T22:02:40.823Z,19.65
2022-11-26T22:05:08.330Z,19.00
2022-11-26T22:07:35.834Z,18.65
2022-11-26T22:10:03.436Z,20.05
2022-11-26T22:12:30.700Z,19.63
2022-11-26T22:14:58.011Z,19.05
2022-11-26T22:17:25.323Z,18.52
2022-11-26T22:19:52.635Z,18.23
2022-11-26T22:22:19.951Z,16.63
2022-11-26T22:24:49.242Z,15.88
2022-11-26T22:27:16.556Z,17.17
2022-11-26T22:29:43.867Z,17.63
2022-11-26T22:32:11.171Z,18.42
2022-11-26T22:34:38.538Z,17.05
2022-11-26T22:37:05.849Z,17.42
2022-11-26T22:39:33.190Z,17.67
2022-11-26T22:42:01.728Z,16.85
2022-11-26T22:44:29.061Z,16.35
2022-11-26T22:46:56.343Z,15.50
2022-11-26T22:49:23.789Z,15.00
2022-11-26T22:51:51.155Z,11.20
2022-11-26T22:54:18.867Z,11.70
2022-11-26T22:56:46.159Z,14.05
2022-11-26T22:59:14.029Z,14.48
2022-11-26T23:01:41.376Z,14.73
2022-11-26T23:04:09.274Z,16.48
2022-11-26T23:06:37.020Z,15.18
2022-11-26T23:09:05.641Z,15.70
2022-11-26T23:11:37.632Z,17.70
2022-11-26T23:14:07.257Z,18.17
2022-11-26T23:16:35.492Z,17.80
2022-11-26T23:19:03.137Z,18.48
2022-11-26T23:21:32.571Z,18.15
2022-11-26T23:24:00.090Z,18.52
2022-11-26T23:26:30.681Z,17.80
2022-11-26T23:28:58.833Z,18.77
2022-11-26T23:31:30.996Z,19.08
2022-11-26T23:33:58.502Z,20.10
2022-11-26T23:36:26.236Z,19.02
2022-11-26T23:38:53.723Z,18.08
2022-11-26T23:41:21.134Z,18.20
2022-11-26T23:43:48.717Z,18.35
2022-11-26T23:46:21.844Z,18.45
2022-11-26T23:48:49.333Z,16.85
2022-11-26T23:51:30.559Z,16.88
2022-11-26T23:53:57.848Z,15.85
2022-11-26T23:56:31.267Z,16.30
2022-11-26T23:59:00.249Z,15.20
